Time;durP1;ratioP1;P1;durP2;ratioP2;P2;SDS_P1;SDS_P2;PMS_P1;PMS_P2;Temp;Humidity;BMP_temperature;BMP_pressure;BME280_temperature;BME280_humidity;BME280_pressure;Samples;Min_cycle;Max_cycle;Signal;HPM_P1;HPM_P2
2023/09/27 00:00:10;;;;;;;9.13;4.38;;;;;;;19.63;63.33;100256.09;5066646;28;20131;-71
2023/09/27 00:02:38;;;;;;;7.85;4.38;;;;;;;19.66;63.60;100247.19;5065210;28;20045;-70
2023/09/27 00:05:06;;;;;;;6.97;4.20;;;;;;;19.72;63.29;100245.13;5064852;28;20514;-71
2023/09/27 00:07:36;;;;;;;7.38;4.65;;;;;;;19.74;63.18;100242.03;5065610;28;20553;-77
2023/09/27 00:10:02;;;;;;;9.52;4.45;;;;;;;19.75;62.98;100243.69;5065807;28;20039;-76
2023/09/27 00:12:28;;;;;;;7.95;4.60;;;;;;;19.74;63.28;100244.78;5064184;28;20599;-76
2023/09/27 00:14:54;;;;;;;9.15;4.47;;;;;;;19.73;63.14;100251.47;5065469;28;20040;-77
2023/09/27 00:17:20;;;;;;;10.25;4.75;;;;;;;19.73;62.90;100255.03;5065600;28;20044;-76
2023/09/27 00:19:45;;;;;;;6.97;4.13;;;;;;;19.76;62.54;100257.19;5065470;28;20078;-76
2023/09/27 00:22:10;;;;;;;7.27;4.53;;;;;;;19.76;62.84;100253.59;5065612;28;20382;-76
2023/09/27 00:24:36;;;;;;;8.07;4.80;;;;;;;19.76;62.93;100250.81;5065593;28;20261;-76
2023/09/27 00:27:01;;;;;;;7.63;4.55;;;;;;;19.72;62.88;100250.66;5065084;28;20063;-76
2023/09/27 00:29:27;;;;;;;10.80;4.30;;;;;;;19.65;63.02;100242.78;5065403;28;20141;-77
2023/09/27 00:31:52;;;;;;;9.63;4.17;;;;;;;19.60;63.50;100234.63;5065153;28;20068;-77
2023/09/27 00:34:17;;;;;;;17.33;5.30;;;;;;;19.63;62.89;100239.50;5062830;28;20322;-77
2023/09/27 00:36:43;;;;;;;6.18;3.88;;;;;;;19.56;63.15;100239.16;5065225;28;20033;-77
2023/09/27 00:39:08;;;;;;;8.15;4.10;;;;;;;19.55;63.18;100240.28;5065295;28;20041;-76
2023/09/27 00:41:33;;;;;;;6.80;4.10;;;;;;;19.56;63.50;100252.97;5063453;28;20032;-78
2023/09/27 00:43:58;;;;;;;8.67;4.13;;;;;;;19.64;63.06;100246.69;5064161;28;20292;-76
2023/09/27 00:46:24;;;;;;;6.93;4.13;;;;;;;19.65;62.97;100256.59;5064368;28;20330;-76
2023/09/27 00:48:49;;;;;;;8.80;4.72;;;;;;;19.66;62.98;100251.91;5064286;28;20770;-76
2023/09/27 00:51:15;;;;;;;7.32;4.22;;;;;;;19.66;62.82;100247.19;5063830;28;20116;-76
2023/09/27 00:53:43;;;;;;;9.15;4.25;;;;;;;19.69;62.62;100254.84;5063788;28;20107;-76
2023/09/27 00:56:09;;;;;;;6.65;4.47;;;;;;;19.69;62.91;100260.38;5063839;28;20314;-76
2023/09/27 00:58:36;;;;;;;7.03;4.53;;;;;;;19.65;62.93;100267.66;5063700;28;20059;-77
2023/09/27 01:01:02;;;;;;;8.82;3.80;;;;;;;19.64;63.06;100263.28;5063929;28;20032;-75
2023/09/27 01:03:27;;;;;;;9.60;4.25;;;;;;;19.63;62.73;100274.66;5063470;28;20039;-77
2023/09/27 01:05:53;;;;;;;8.13;4.40;;;;;;;19.63;62.89;100281.00;5062769;28;20039;-77
2023/09/27 01:08:18;;;;;;;8.00;4.25;;;;;;;19.64;62.94;100292.88;5063575;28;20040;-77
2023/09/27 01:10:45;;;;;;;9.15;4.65;;;;;;;19.60;63.02;100287.16;5063800;28;20055;-76
2023/09/27 01:13:10;;;;;;;7.03;4.25;;;;;;;19.51;63.17;100291.78;5063247;28;20039;-76
2023/09/27 01:15:35;;;;;;;7.95;4.68;;;;;;;19.52;63.23;100297.03;5062813;28;20028;-77
2023/09/27 01:18:02;;;;;;;11.10;4.93;;;;;;;19.41;63.60;100295.63;5063687;28;20043;-77
2023/09/27 01:20:29;;;;;;;9.98;5.25;;;;;;;19.44;63.51;100293.06;5064139;28;20303;-77
2023/09/27 01:22:59;;;;;;;8.57;4.70;;;;;;;19.44;63.87;100281.19;5064351;28;20044;-77
2023/09/27 01:25:43;;;;;;;8.63;4.65;;;;;;;19.45;63.16;100297.47;5064037;28;20089;-76
2023/09/27 01:28:10;;;;;;;8.48;4.40;;;;;;;19.47;63.62;100291.59;5064239;28;20124;-77
2023/09/27 01:30:36;;;;;;;7.38;4.35;;;;;;;19.39;63.40;100303.41;5064801;28;20324;-76
2023/09/27 01:33:06;;;;;;;8.30;4.40;;;;;;;19.42;63.33;100305.56;5063779;28;20125;-75
2023/09/27 01:35:33;;;;;;;8.43;4.43;;;;;;;19.41;63.52;100304.72;5064188;28;20029;-76
2023/09/27 01:37:58;;;;;;;7.50;4.55;;;;;;;19.46;63.01;100310.16;5064426;28;20127;-76
2023/09/27 01:40:26;;;;;;;5.43;3.50;;;;;;;19.50;63.02;100312.28;5063770;28;20043;-76
2023/09/27 01:42:53;;;;;;;7.03;4.28;;;;;;;19.50;63.18;100320.59;5063433;28;20561;-75
2023/09/27 01:45:18;;;;;;;9.57;4.82;;;;;;;19.47;63.19;100317.31;5063110;28;20032;-76
2023/09/27 01:47:44;;;;;;;7.93;4.57;;;;;;;19.43;63.40;100302.47;5063716;28;20079;-76
2023/09/27 01:50:09;;;;;;;10.75;4.78;;;;;;;19.44;63.25;100301.38;5063275;28;20470;-76
2023/09/27 01:52:35;;;;;;;8.20;4.65;;;;;;;19.44;63.64;100289.47;5062220;28;20032;-79
2023/09/27 01:55:00;;;;;;;7.38;4.15;;;;;;;19.39;63.46;100304.22;5063106;28;20082;-76
2023/09/27 01:57:25;;;;;;;6.65;4.30;;;;;;;19.32;63.60;100306.63;5063244;28;20121;-76
2023/09/27 01:59:51;;;;;;;6.97;3.70;;;;;;;19.29;63.58;100304.47;5063758;28;20032;-76
2023/09/27 02:02:16;;;;;;;8.83;4.13;;;;;;;19.32;63.74;100304.66;5063560;28;20270;-76
2023/09/27 02:04:41;;;;;;;9.03;4.53;;;;;;;19.29;63.57;100315.50;5063446;28;20262;-76
2023/09/27 02:07:07;;;;;;;8.50;3.47;;;;;;;19.25;63.68;100313.38;5063757;28;20281;-77
2023/09/27 02:09:32;;;;;;;8.93;5.05;;;;;;;19.17;63.97;100319.63;5063715;28;21110;-77
2023/09/27 02:11:57;;;;;;;8.43;4.33;;;;;;;19.13;64.09;100315.81;5063178;28;20048;-76
2023/09/27 02:14:23;;;;;;;10.17;4.53;;;;;;;19.16;63.99;100318.00;5063252;28;20257;-76
2023/09/27 02:16:48;;;;;;;9.80;4.25;;;;;;;19.22;63.94;100310.44;5063008;28;20272;-76
2023/09/27 02:19:13;;;;;;;7.10;4.57;;;;;;;19.22;63.75;100304.91;5063740;28;20047;-76
2023/09/27 02:21:39;;;;;;;6.50;4.00;;;;;;;19.22;63.85;100307.66;5063257;28;20650;-76
2023/09/27 02:24:06;;;;;;;8.38;4.97;;;;;;;19.13;63.90;100310.31;5063222;28;20269;-77
2023/09/27 02:26:31;;;;;;;6.75;4.25;;;;;;;19.05;63.78;100313.78;5063424;28;20047;-76
2023/09/27 02:28:56;;;;;;;8.07;3.85;;;;;;;18.97;64.08;100313.41;5062620;28;20032;-71
2023/09/27 02:31:21;;;;;;;11.15;4.53;;;;;;;18.84;64.79;100319.72;5062610;28;20055;-71
2023/09/27 02:33:47;;;;;;;11.00;4.95;;;;;;;18.81;64.61;100317.59;5061668;28;20056;-71
2023/09/27 02:36:12;;;;;;;6.32;4.20;;;;;;;18.73;64.68;100328.22;5062639;28;20565;-71
2023/09/27 02:38:37;;;;;;;9.23;4.03;;;;;;;18.68;64.98;100320.06;5062391;28;20082;-70
2023/09/27 02:41:04;;;;;;;6.13;3.78;;;;;;;18.70;65.44;100317.81;5062071;28;20036;-71
2023/09/27 02:43:29;;;;;;;6.80;3.80;;;;;;;18.83;64.76;100312.59;5061458;28;20397;-71
2023/09/27 02:45:54;;;;;;;6.90;4.05;;;;;;;18.93;64.52;100312.38;5062349;28;20047;-71
2023/09/27 02:48:20;;;;;;;8.90;5.63;;;;;;;18.96;64.09;100309.00;5062255;28;20440;-70
2023/09/27 02:50:49;;;;;;;9.93;4.50;;;;;;;19.00;64.15;100304.47;5061646;28;20292;-70
2023/09/27 02:53:14;;;;;;;9.98;4.05;;;;;;;19.00;64.00;100304.47;5062070;28;20273;-71
2023/09/27 02:55:39;;;;;;;9.13;4.53;;;;;;;18.96;64.17;100297.13;5062502;28;20071;-71
2023/09/27 02:58:05;;;;;;;5.70;3.60;;;;;;;18.83;64.08;100298.78;5061943;28;20311;-70
2023/09/27 03:00:30;;;;;;;8.30;4.32;;;;;;;18.72;64.38;100287.94;5062360;28;20284;-71
2023/09/27 03:02:56;;;;;;;7.75;4.90;;;;;;;18.65;64.76;100287.53;5062010;28;20036;-71
2023/09/27 03:05:21;;;;;;;6.03;3.85;;;;;;;18.53;64.63;100275.06;5061015;28;20086;-71
2023/09/27 03:07:48;;;;;;;6.88;3.92;;;;;;;18.44;65.03;100271.38;5061564;28;20190;-72
2023/09/27 03:10:15;;;;;;;8.13;5.20;;;;;;;18.34;65.41;100263.28;5061947;28;20036;-70
2023/09/27 03:12:41;;;;;;;6.75;4.32;;;;;;;18.36;65.34;100266.56;5061802;28;20044;-72
2023/09/27 03:15:11;;;;;;;7.35;4.35;;;;;;;18.33;65.29;100262.47;5061440;28;20036;-71
2023/09/27 03:17:37;;;;;;;7.57;4.68;;;;;;;18.25;65.35;100263.16;5062033;28;20370;-72
2023/09/27 03:20:07;;;;;;;9.15;5.00;;;;;;;18.15;65.61;100258.63;5061958;28;20550;-70
2023/09/27 03:22:32;;;;;;;10.77;5.25;;;;;;;18.14;65.71;100257.84;5061756;28;20032;-71
2023/09/27 03:24:57;;;;;;;7.85;4.13;;;;;;;18.15;65.67;100264.16;5061401;28;20712;-71
2023/09/27 03:27:22;;;;;;;8.37;4.10;;;;;;;18.15;65.59;100261.41;5062008;28;20127;-71
2023/09/27 03:29:48;;;;;;;9.15;5.00;;;;;;;18.08;65.81;100259.84;5063877;28;20608;-71
2023/09/27 03:32:13;;;;;;;12.57;4.87;;;;;;;18.05;65.94;100260.47;5065464;28;20032;-71
2023/09/27 03:34:38;;;;;;;8.27;4.50;;;;;;;18.02;66.17;100257.50;5065095;28;21523;-72
2023/09/27 03:37:04;;;;;;;7.90;4.80;;;;;;;17.94;66.17;100264.53;5065109;28;20260;-71
2023/09/27 03:39:35;;;;;;;9.10;4.60;;;;;;;17.83;66.56;100264.72;5066553;28;20348;-76
2023/09/27 03:42:01;;;;;;;11.52;5.18;;;;;;;17.89;66.62;100278.41;5066869;28;20040;-76
2023/09/27 03:44:27;;;;;;;7.40;5.03;;;;;;;17.88;66.48;100277.56;5066309;28;20060;-76
2023/09/27 03:46:52;;;;;;;9.50;5.67;;;;;;;17.85;66.30;100273.50;5066583;28;20552;-76
2023/09/27 03:49:17;;;;;;;6.90;4.37;;;;;;;17.94;66.57;100275.56;5066383;28;20261;-77
2023/09/27 03:51:42;;;;;;;10.30;5.47;;;;;;;17.95;66.46;100271.69;5066016;28;20405;-76
2023/09/27 03:54:09;;;;;;;9.40;6.30;;;;;;;17.92;66.57;100277.81;5065994;28;20178;-76
2023/09/27 03:56:34;;;;;;;8.50;5.22;;;;;;;17.93;66.38;100265.66;5066201;28;20131;-76
2023/09/27 03:58:59;;;;;;;11.07;9.93;;;;;;;17.92;66.35;100258.50;5064800;28;20068;-76
2023/09/27 04:01:25;;;;;;;9.77;6.90;;;;;;;17.90;66.26;100250.50;5065406;28;20634;-76
2023/09/27 04:03:50;;;;;;;9.07;6.37;;;;;;;17.88;66.32;100246.44;5065388;28;20060;-76
2023/09/27 04:06:15;;;;;;;10.43;6.63;;;;;;;17.80;66.41;100242.41;5065784;28;20449;-76
2023/09/27 04:08:40;;;;;;;10.80;9.90;;;;;;;17.80;66.33;100243.25;5066183;28;20256;-77
2023/09/27 04:11:06;;;;;;;13.03;8.87;;;;;;;17.80;66.32;100254.28;5065940;28;20268;-77
2023/09/27 04:13:32;;;;;;;13.38;12.18;;;;;;;17.70;66.68;100257.19;5065516;28;20765;-76
2023/09/27 04:15:58;;;;;;;10.77;9.85;;;;;;;17.85;66.80;100254.19;5066346;28;20506;-76
2023/09/27 04:18:23;;;;;;;10.52;7.65;;;;;;;18.02;66.25;100258.31;5065655;28;20044;-76
2023/09/27 04:20:48;;;;;;;9.10;6.00;;;;;;;17.97;66.10;100253.72;5065745;28;20032;-80
2023/09/27 04:23:14;;;;;;;11.33;9.20;;;;;;;17.80;66.93;100265.31;5065400;28;20253;-76
2023/09/27 04:25:39;;;;;;;21.17;10.77;;;;;;;17.69;67.06;100266.59;5065320;28;20979;-77
2023/09/27 04:28:04;;;;;;;11.50;10.47;;;;;;;17.59;67.13;100270.34;5065389;28;20292;-77
2023/09/27 04:30:30;;;;;;;14.95;13.70;;;;;;;17.53;67.29;100272.38;5065077;28;20976;-76
2023/09/27 04:32:55;;;;;;;15.13;13.80;;;;;;;17.51;67.23;100271.84;5065800;28;20044;-76
2023/09/27 04:35:21;;;;;;;9.37;8.47;;;;;;;17.43;67.35;100267.81;5066053;28;20257;-77
2023/09/27 04:37:46;;;;;;;33.97;31.73;;;;;;;17.42;67.46;100268.13;5065830;28;20262;-75
2023/09/27 04:40:12;;;;;;;34.37;32.10;;;;;;;17.44;67.20;100274.16;5065530;28;20091;-77
2023/09/27 04:42:41;;;;;;;68.07;65.20;;;;;;;17.45;67.49;100275.81;5064697;28;20269;-76
2023/09/27 04:45:09;;;;;;;33.58;31.83;;;;;;;17.43;67.47;100283.53;5064123;28;20421;-77
2023/09/27 04:47:34;;;;;;;111.88;107.00;;;;;;;17.38;67.52;100282.50;5064328;28;20080;-77
2023/09/27 04:50:00;;;;;;;156.35;149.75;;;;;;;17.32;67.89;100289.22;5064404;28;20521;-76
2023/09/27 04:52:25;;;;;;;74.85;71.43;;;;;;;17.24;67.68;100304.47;5064264;28;20098;-76
2023/09/27 04:54:56;;;;;;;193.37;184.83;;;;;;;17.26;67.80;100287.63;5063962;28;20150;-76
2023/09/27 04:57:22;;;;;;;181.88;173.98;;;;;;;17.26;68.09;100293.16;5064029;28;20276;-76
2023/09/27 04:59:48;;;;;;;258.75;247.82;;;;;;;17.23;68.20;100291.81;5064538;28;20032;-77
2023/09/27 05:02:13;;;;;;;256.15;244.93;;;;;;;17.17;67.86;100294.94;5063946;28;20047;-76
2023/09/27 05:04:38;;;;;;;369.40;352.03;;;;;;;17.08;67.99;100295.56;5063594;28;20037;-77
2023/09/27 05:07:04;;;;;;;337.00;321.70;;;;;;;17.04;68.13;100295.31;5063873;28;20785;-76
2023/09/27 05:09:29;;;;;;;259.25;247.48;;;;;;;17.04;68.20;100300.81;5063493;28;20265;-76
2023/09/27 05:11:54;;;;;;;215.75;206.52;;;;;;;17.23;68.03;100308.31;5064244;28;20540;-77
2023/09/27 05:14:19;;;;;;;146.30;140.00;;;;;;;17.37;67.40;100308.41;5062547;28;20507;-77
2023/09/27 05:16:45;;;;;;;134.23;128.70;;;;;;;17.22;67.96;100311.38;5063688;28;20271;-76
2023/09/27 05:19:10;;;;;;;203.87;195.33;;;;;;;17.22;67.86;100300.38;5063456;28;20258;-77
2023/09/27 05:21:36;;;;;;;251.52;240.70;;;;;;;17.12;68.17;100301.31;5063920;28;21038;-77
2023/09/27 05:24:02;;;;;;;307.73;293.40;;;;;;;17.20;68.45;100297.09;5063290;28;20032;-76
2023/09/27 05:26:27;;;;;;;316.40;302.42;;;;;;;17.14;67.99;100286.16;5062193;28;20158;-77
2023/09/27 05:28:52;;;;;;;300.63;287.37;;;;;;;17.08;68.59;100295.56;5063733;28;20029;-76
2023/09/27 05:31:18;;;;;;;242.37;231.87;;;;;;;16.99;68.89;100291.81;5063271;28;20454;-76
2023/09/27 05:33:44;;;;;;;240.98;230.55;;;;;;;17.01;68.46;100303.34;5063317;28;23921;-76
2023/09/27 05:36:09;;;;;;;392.37;373.03;;;;;;;17.12;68.46;100304.91;5063657;28;20085;-76
2023/09/27 05:38:35;;;;;;;386.88;367.98;;;;;;;17.33;68.23;100298.31;5063782;28;20272;-76
2023/09/27 05:41:00;;;;;;;211.65;202.57;;;;;;;17.45;67.59;100292.34;5062881;28;20035;-77
2023/09/27 05:43:25;;;;;;;170.77;163.07;;;;;;;17.49;67.63;100282.34;5062644;28;20111;-78
2023/09/27 05:45:51;;;;;;;201.27;192.52;;;;;;;17.38;67.67;100287.19;5062609;28;20281;-78
2023/09/27 05:48:19;;;;;;;376.30;357.42;;;;;;;17.28;68.03;100288.16;5063074;28;20040;-78
2023/09/27 05:50:47;;;;;;;199.15;190.82;;;;;;;17.27;67.97;100294.78;5063295;28;20033;-78
2023/09/27 05:53:16;;;;;;;367.15;349.52;;;;;;;17.36;67.86;100292.19;5063186;28;20040;-77
2023/09/27 05:55:42;;;;;;;417.92;396.30;;;;;;;17.43;67.82;100289.06;5063488;28;20546;-79
2023/09/27 05:58:07;;;;;;;408.48;388.35;;;;;;;17.50;67.70;100295.00;5062075;28;20032;-79
2023/09/27 06:00:38;;;;;;;169.35;162.25;;;;;;;17.59;67.49;100293.19;5063558;28;20037;-78
2023/09/27 06:03:07;;;;;;;348.30;331.75;;;;;;;17.49;67.71;100298.88;5064090;28;20040;-79
2023/09/27 06:05:32;;;;;;;433.83;412.17;;;;;;;17.32;68.41;100315.94;5062385;28;20397;-78
2023/09/27 06:07:58;;;;;;;382.88;365.10;;;;;;;17.33;68.36;100304.59;5061699;28;20040;-79
2023/09/27 06:10:24;;;;;;;412.35;392.67;;;;;;;17.25;68.82;100316.28;5062289;28;20055;-77
2023/09/27 06:12:49;;;;;;;349.13;333.20;;;;;;;17.34;68.71;100313.69;5063263;28;20111;-79
2023/09/27 06:15:16;;;;;;;393.55;374.65;;;;;;;17.45;67.95;100315.19;5063010;28;20497;-78
2023/09/27 06:17:42;;;;;;;393.23;373.00;;;;;;;17.50;68.32;100317.06;5062553;28;20437;-77
2023/09/27 06:20:15;;;;;;;259.58;248.48;;;;;;;17.62;68.08;100305.56;5062527;28;20501;-77
2023/09/27 06:22:42;;;;;;;195.93;187.60;;;;;;;17.65;68.00;100309.69;5062832;28;20039;-79
2023/09/27 06:25:07;;;;;;;79.72;75.95;;;;;;;17.84;67.81;100309.63;5062766;28;20273;-75
2023/09/27 06:27:34;;;;;;;140.32;134.10;;;;;;;17.94;67.22;100309.47;5062404;28;20537;-76
2023/09/27 06:29:59;;;;;;;214.80;205.82;;;;;;;17.95;67.46;100304.78;5062780;28;20332;-75
2023/09/27 06:32:25;;;;;;;394.52;375.25;;;;;;;17.99;67.58;100310.50;5062678;28;20498;-75
2023/09/27 06:34:52;;;;;;;333.27;317.90;;;;;;;18.15;67.19;100319.34;5062409;28;20024;-75
2023/09/27 06:37:18;;;;;;;284.92;271.58;;;;;;;18.30;67.01;100319.09;5062284;28;20104;-75
2023/09/27 06:39:43;;;;;;;347.80;331.85;;;;;;;18.44;66.60;100329.34;5062491;28;20068;-76
2023/09/27 06:42:08;;;;;;;295.02;281.60;;;;;;;18.58;66.02;100328.53;5062466;28;20327;-76
2023/09/27 06:44:34;;;;;;;73.67;70.13;;;;;;;18.63;65.82;100322.94;5062078;28;20047;-75
2023/09/27 06:46:59;;;;;;;36.85;34.88;;;;;;;18.73;65.32;100316.38;5061625;28;20297;-75
2023/09/27 06:49:25;;;;;;;21.98;20.38;;;;;;;18.83;65.79;100312.59;5062184;28;20328;-76
2023/09/27 06:51:50;;;;;;;15.25;9.77;;;;;;;18.81;65.92;100312.06;5063339;28;20036;-82
2023/09/27 06:54:15;;;;;;;24.35;22.85;;;;;;;18.78;66.08;100319.03;5062878;28;20077;-86
2023/09/27 06:56:41;;;;;;;96.65;91.97;;;;;;;18.81;66.69;100331.41;5060885;28;20109;-82
2023/09/27 06:59:07;;;;;;;105.72;101.20;;;;;;;18.89;66.35;100325.16;5062849;28;20043;-81
2023/09/27 07:01:33;;;;;;;86.72;82.28;;;;;;;18.99;65.61;100330.50;5062588;28;20037;-81
2023/09/27 07:03:58;;;;;;;77.25;73.40;;;;;;;19.00;65.78;100321.06;5064256;28;20037;-82
2023/09/27 07:06:23;;;;;;;14.52;12.00;;;;;;;19.00;65.74;100318.28;5065592;28;20111;-82
2023/09/27 07:08:52;;;;;;;15.63;14.13;;;;;;;19.05;65.89;100320.16;5082264;28;20051;-75
2023/09/27 07:11:19;;;;;;;110.43;105.13;;;;;;;19.10;65.91;100324.75;5066619;28;20448;-77
2023/09/27 07:13:45;;;;;;;124.93;119.40;;;;;;;19.18;65.83;100332.31;5066282;28;20032;-77
2023/09/27 07:16:30;;;;;;;123.45;117.68;;;;;;;19.27;65.42;100334.34;5081759;28;20524;-79
2023/09/27 07:18:59;;;;;;;62.42;58.88;;;;;;;19.27;65.63;100317.78;5065818;28;20044;-79
2023/09/27 07:21:25;;;;;;;166.23;158.63;;;;;;;19.25;65.71;100312.56;5066007;28;20037;-78
2023/09/27 07:23:52;;;;;;;150.73;143.63;;;;;;;19.28;65.67;100308.38;5066116;28;20044;-77
2023/09/27 07:26:17;;;;;;;74.78;70.80;;;;;;;19.33;65.99;100300.78;5066426;28;20476;-77
2023/09/27 07:28:43;;;;;;;54.63;51.45;;;;;;;19.28;65.91;100300.06;5066474;28;20174;-77
2023/09/27 07:31:15;;;;;;;23.35;21.20;;;;;;;19.21;65.89;100292.19;5065973;28;20158;-78
2023/09/27 07:33:40;;;;;;;13.55;10.90;;;;;;;19.25;65.74;100310.63;5064275;28;20029;-79
2023/09/27 07:36:08;;;;;;;97.70;92.93;;;;;;;19.22;66.19;100311.22;5066095;28;20048;-77
2023/09/27 07:38:34;;;;;;;86.55;82.68;;;;;;;19.31;66.27;100311.31;5066356;28;20044;-78
2023/09/27 07:40:59;;;;;;;42.38;39.75;;;;;;;19.32;66.42;100312.94;5065674;28;20036;-78
2023/09/27 07:43:25;;;;;;;162.05;154.95;;;;;;;19.32;66.18;100309.38;5064999;28;20466;-79
2023/09/27 07:45:52;;;;;;;117.65;111.43;;;;;;;19.33;66.25;100305.47;5065644;28;20029;-79
2023/09/27 07:48:21;;;;;;;21.10;19.08;;;;;;;19.37;66.17;100312.00;5065686;28;20107;-78
2023/09/27 07:50:46;;;;;;;73.40;70.07;;;;;;;19.38;65.83;100313.66;5065999;28;20695;-78
2023/09/27 07:53:12;;;;;;;82.83;78.70;;;;;;;19.41;65.92;100313.03;5080998;28;20224;-79
2023/09/27 07:55:43;;;;;;;10.38;9.35;;;;;;;19.48;65.73;100310.66;5065732;28;20268;-78
2023/09/27 07:58:09;;;;;;;15.60;14.40;;;;;;;19.59;64.90;100313.16;5065539;28;20028;-79
2023/09/27 08:00:35;;;;;;;9.18;6.82;;;;;;;19.65;64.37;100313.88;5065497;28;20040;-77
2023/09/27 08:03:02;;;;;;;17.42;15.95;;;;;;;19.72;64.03;100308.72;5065206;28;20408;-77
2023/09/27 08:05:27;;;;;;;12.23;6.80;;;;;;;19.77;63.64;100316.09;5065594;28;20524;-79
2023/09/27 08:07:53;;;;;;;13.25;6.65;;;;;;;19.81;63.59;100314.34;5066157;28;20333;-80
2023/09/27 08:10:18;;;;;;;10.50;8.10;;;;;;;19.91;63.29;100319.59;5065416;28;20047;-77
2023/09/27 08:12:44;;;;;;;8.90;5.57;;;;;;;19.97;63.57;100311.19;5063381;28;20843;-79
2023/09/27 08:15:12;;;;;;;11.20;5.45;;;;;;;20.03;63.19;100310.75;5063113;28;20042;-77
2023/09/27 08:17:38;;;;;;;8.73;4.85;;;;;;;20.13;63.07;100297.78;5065447;28;20112;-78
2023/09/27 08:20:05;;;;;;;7.90;4.85;;;;;;;20.25;63.32;100291.66;5063688;28;20125;-78
2023/09/27 08:22:33;;;;;;;7.38;4.43;;;;;;;20.38;62.82;100276.91;5064783;28;20043;-79
2023/09/27 08:24:58;;;;;;;7.63;4.20;;;;;;;20.42;62.12;100272.34;5064197;28;20043;-77
2023/09/27 08:27:24;;;;;;;9.15;5.28;;;;;;;20.50;61.97;100272.72;5065007;28;20028;-78
2023/09/27 08:29:50;;;;;;;7.95;4.32;;;;;;;20.62;61.08;100278.47;5064881;28;20033;-78
2023/09/27 08:32:15;;;;;;;5.87;3.67;;;;;;;20.73;61.01;100287.28;5064072;28;20039;-79
2023/09/27 08:34:40;;;;;;;7.10;3.53;;;;;;;20.77;60.97;100288.28;5064844;28;20704;-78
2023/09/27 08:37:06;;;;;;;6.88;4.28;;;;;;;20.81;61.12;100280.13;5065578;28;20032;-79
2023/09/27 08:39:31;;;;;;;7.47;4.45;;;;;;;20.85;60.96;100271.97;5065051;28;20051;-78
2023/09/27 08:41:58;;;;;;;7.23;4.33;;;;;;;20.97;61.46;100274.19;5064589;28;20078;-79
2023/09/27 08:44:24;;;;;;;7.40;4.22;;;;;;;21.03;60.97;100266.53;5063370;28;20352;-79
2023/09/27 08:46:51;;;;;;;11.77;4.40;;;;;;;21.03;61.03;100278.41;5064731;28;20049;-78
2023/09/27 08:49:17;;;;;;;6.28;3.63;;;;;;;21.17;60.89;100272.75;5065080;28;20086;-79
2023/09/27 08:51:45;;;;;;;9.07;5.45;;;;;;;21.25;60.92;100273.06;5080013;28;20047;-79
2023/09/27 08:54:12;;;;;;;8.30;4.72;;;;;;;21.27;60.80;100260.50;5064488;28;20032;-80
2023/09/27 08:56:37;;;;;;;8.20;5.28;;;;;;;21.26;61.18;100258.88;5064834;28;20399;-79
2023/09/27 08:59:04;;;;;;;10.43;4.90;;;;;;;21.26;61.06;100263.59;5064061;28;20740;-78
2023/09/27 09:01:33;;;;;;;9.18;4.50;;;;;;;21.18;61.42;100268.00;5064487;28;20064;-79
2023/09/27 09:03:59;;;;;;;8.00;5.07;;;;;;;21.11;61.59;100268.50;5064302;28;20218;-79
2023/09/27 09:06:27;;;;;;;8.68;4.68;;;;;;;21.17;61.80;100271.91;5063936;28;20039;-79
2023/09/27 09:08:52;;;;;;;9.98;5.15;;;;;;;21.18;62.10;100256.91;5064423;28;20035;-79
2023/09/27 09:11:18;;;;;;;8.95;4.55;;;;;;;21.19;62.37;100247.47;5064304;28;20406;-80
2023/09/27 09:14:17;;;;;;;9.60;4.60;;;;;;;21.18;62.44;100251.34;5079359;28;20044;-79
2023/09/27 09:16:50;;;;;;;9.95;4.82;;;;;;;21.18;62.18;100256.91;5052133;28;20098;-78
2023/09/27 09:19:25;;;;;;;9.95;5.90;;;;;;;21.24;62.36;100250.06;5064178;28;20119;-77
2023/09/27 09:22:08;;;;;;;10.77;5.70;;;;;;;21.29;62.38;100247.13;5064447;28;20056;-77
2023/09/27 09:24:36;;;;;;;9.45;4.75;;;;;;;21.31;62.01;100244.84;5064367;28;20040;-78
2023/09/27 09:27:10;;;;;;;10.23;6.13;;;;;;;21.34;62.00;100244.19;5061717;28;20028;-83
2023/09/27 09:29:48;;;;;;;;;;;;;;;21.38;62.10;100249.91;5066167;28;20060;-86
2023/09/27 09:32:20;;;;;;;9.60;5.50;;;;;;;21.33;62.30;100239.81;5063676;28;19946;-84
2023/09/27 09:34:48;;;;;;;11.40;5.38;;;;;;;21.35;62.41;100239.47;5065141;28;20031;-85
2023/09/27 09:37:19;;;;;;;10.55;6.03;;;;;;;21.42;62.49;100231.47;5063825;28;20036;-84
2023/09/27 09:39:46;;;;;;;10.07;5.32;;;;;;;21.51;62.49;100228.69;5062950;28;20036;-83
2023/09/27 09:42:13;;;;;;;9.80;5.10;;;;;;;21.57;62.49;100221.84;5065363;28;20040;-84
2023/09/27 09:44:39;;;;;;;9.90;5.53;;;;;;;21.64;62.63;100224.09;5064597;28;20078;-88
2023/09/27 09:47:12;;;;;;;11.63;5.32;;;;;;;21.72;62.70;100225.22;5067645;28;20048;-84
2023/09/27 09:49:41;;;;;;;9.07;4.95;;;;;;;21.75;62.16;100238.44;5065259;28;20029;-83
2023/09/27 09:52:11;;;;;;;12.32;6.82;;;;;;;21.77;62.13;100227.00;5064712;28;20175;-83
2023/09/27 09:54:47;;;;;;;11.18;5.78;;;;;;;21.77;60.87;100225.03;5063174;28;20044;-83
2023/09/27 09:57:13;;;;;;;11.38;6.05;;;;;;;21.83;61.42;100209.06;5064936;28;20044;-82
2023/09/27 10:00:00;;;;;;;9.55;5.28;;;;;;;21.86;60.86;100211.19;5065544;28;20028;-83
2023/09/27 10:02:32;;;;;;;9.43;5.78;;;;;;;21.88;60.65;100210.84;5064724;28;20664;-85
2023/09/27 10:04:59;;;;;;;9.95;5.30;;;;;;;21.97;60.88;100213.59;5065248;28;20033;-87
2023/09/27 10:07:27;;;;;;;10.98;4.50;;;;;;;21.91;61.04;100221.28;5064694;28;20036;-83
2023/09/27 10:09:52;;;;;;;16.10;5.78;;;;;;;21.91;61.30;100232.38;5064716;28;20037;-83
2023/09/27 10:12:21;;;;;;;8.52;4.60;;;;;;;21.96;62.11;100228.63;5064879;28;20040;-84
2023/09/27 10:14:47;;;;;;;9.80;4.82;;;;;;;21.99;61.30;100223.22;5064469;28;20492;-83
2023/09/27 10:17:20;;;;;;;8.93;5.18;;;;;;;21.96;60.89;100215.56;5064831;28;20039;-83
2023/09/27 10:20:05;;;;;;;7.55;4.65;;;;;;;22.04;60.22;100203.63;5064644;28;20024;-89
2023/09/27 10:22:30;;;;;;;10.90;4.40;;;;;;;22.10;60.67;100195.91;5064013;28;20400;-83
2023/09/27 10:24:56;;;;;;;8.90;5.07;;;;;;;22.11;60.35;100202.28;5064277;28;20058;-83
2023/09/27 10:27:22;;;;;;;11.75;5.15;;;;;;;22.23;60.44;100198.81;5064506;28;20037;-81
2023/09/27 10:29:57;;;;;;;9.43;5.25;;;;;;;22.36;60.47;100199.69;5063641;28;20032;-83
2023/09/27 10:32:23;;;;;;;14.60;5.38;;;;;;;22.41;60.17;100199.53;5064122;28;20047;-86
2023/09/27 10:34:49;;;;;;;10.15;5.30;;;;;;;22.46;59.87;100193.78;5064112;28;20494;-84
2023/09/27 10:37:16;;;;;;;10.07;5.25;;;;;;;22.55;59.49;100199.28;5064269;28;20068;-84
2023/09/27 10:40:17;;;;;;;7.85;5.03;;;;;;;22.62;59.83;100198.72;5065158;28;20044;-83
2023/09/27 10:42:43;;;;;;;8.02;4.57;;;;;;;22.65;59.53;100195.31;5063832;28;20044;-81
2023/09/27 10:45:08;;;;;;;10.87;5.07;;;;;;;22.76;59.00;100192.16;5064502;28;20039;-84
2023/09/27 10:47:34;;;;;;;7.57;3.88;;;;;;;22.83;58.59;100192.41;5063936;28;20402;-87
2023/09/27 10:50:00;;;;;;;11.23;4.57;;;;;;;22.90;58.76;100203.00;5064406;28;20055;-83
2023/09/27 10:52:26;;;;;;;11.07;4.97;;;;;;;22.98;58.21;100202.13;5063357;28;20040;-84
2023/09/27 10:54:52;;;;;;;12.88;5.03;;;;;;;22.98;57.84;100193.78;5064547;28;20273;-83
2023/09/27 10:57:20;;;;;;;7.50;4.03;;;;;;;23.01;57.71;100197.84;5064299;28;20032;-84
2023/09/27 10:59:49;;;;;;;16.15;5.50;;;;;;;23.08;56.53;100192.56;5063205;28;20024;-81
2023/09/27 11:02:26;;;;;;;7.20;3.92;;;;;;;23.21;56.77;100197.00;5064807;28;20074;-85
2023/09/27 11:04:55;;;;;;;6.95;3.67;;;;;;;23.23;56.77;100193.09;5064932;28;20290;-85
2023/09/27 11:07:20;;;;;;;6.45;3.17;;;;;;;23.24;57.00;100192.75;5064623;28;20474;-84
2023/09/27 11:09:48;;;;;;;12.30;4.27;;;;;;;23.31;56.41;100190.22;5064556;28;20020;-86
2023/09/27 11:12:20;;;;;;;6.38;3.15;;;;;;;23.33;56.19;100187.91;5064350;28;20293;-87
2023/09/27 11:14:46;;;;;;;7.63;3.67;;;;;;;23.31;55.34;100183.81;5063549;28;20028;-85